TAF Text Data
IDs:
Format:
Raw Decoded Include METAR

Data at: 1323 UTC 23 Mar 2019

Region: TOP
KATL 231123Z 2312/2418 34005KT P6SM SKC
  FM231600 02005KT P6SM SKC
  FM231800 VRB03KT P6SM SKC
  FM240100 05004KT P6SM FEW250
  FM240700 12005KT P6SM SCT250
  FM241400 16006KT P6SM FEW200


KBOS 231123Z 2312/2418 29019G34KT P6SM VCSH OVC045
  FM231400 29018G32KT P6SM SCT070
  FM241000 26009KT P6SM SKC
  FM241300 26010G18KT P6SM SKC


KBWI 231120Z 2312/2418 30017G34KT P6SM FEW250
  FM231700 30017G27KT P6SM SKC
  FM232200 30013G20KT P6SM SKC
  FM240000 30008KT P6SM SKC
  FM240700 28004KT P6SM SKC


KCLE 231130Z 2312/2418 32007KT P6SM FEW030
  FM231800 29007KT P6SM SKC
  FM241200 21007KT P6SM BKN150


KCLT 231120Z 2312/2418 32003KT P6SM SKC
  FM232000 26005KT P6SM FEW250
  FM240000 15003KT P6SM SCT250


KCVG 231129Z 2312/2418 33005KT P6SM SKC
  FM232200 VRB03KT P6SM SCT250
  FM240700 14005KT P6SM BKN120
  FM241500 18008KT P6SM VCSH OVC060


KDCA 231120Z 2312/2418 30018G34KT P6SM SKC
  FM231700 30016G27KT P6SM SKC
  FM232300 31012KT P6SM SKC
  FM240200 30008KT P6SM SKC
  FM240700 29004KT P6SM SKC
  FM241400 23005KT P6SM SCT250


KDEN 231236Z 2313/2418 05008KT P6SM BKN007 OVC090
  TEMPO 2313/2315 SCT007 OVC090
  FM231900 36014KT P6SM SCT070 BKN110
  FM240400 21009KT P6SM FEW100 SCT250


KDFW 231140Z 2312/2418 17011KT P6SM VCSH BKN040 BKN150
  TEMPO 2312/2316 -RA BKN045
  FM231600 18015G20KT P6SM BKN035 OVC060
  FM232300 17014KT P6SM VCSH SCT030 BKN050
  FM240500 17015G20KT P6SM BKN020


KDTW 231123Z 2312/2418 30006KT P6SM SKC
  FM231600 27008KT P6SM SKC
  FM232200 22005KT P6SM SKC


KEWR 231122Z 2312/2418 30019G30KT P6SM SCT040 SCT090
  FM231700 30018G28KT P6SM FEW040
  FM232200 30015G25KT P6SM SKC
  FM240100 30012G19KT P6SM SKC
  FM240300 29010KT P6SM SKC
  FM241100 27008KT P6SM SKC
  FM241700 25010KT P6SM SCT180


KFLL 231133Z 2312/2418 34005KT P6SM SKC
  FM231700 06008KT P6SM SKC
  FM240600 09008KT P6SM SCT035 SCT250
  FM241400 09014KT P6SM BKN035


KIAD 231120Z 2312/2418 31018G30KT P6SM FEW250
  FM232200 31014G21KT P6SM SKC
  FM240000 30010KT P6SM SKC
  FM240300 30006KT P6SM SKC
  FM241300 23004KT P6SM FEW200


KIAH 231130Z 2312/2418 16007KT P6SM BKN070 OVC250
  FM231600 16013G21KT P6SM BKN060 BKN250
  FM240000 15009KT P6SM SCT050
  FM240600 14004KT P6SM BKN050
  FM241100 17008KT P6SM FEW025 BKN035


KJFK 231122Z 2312/2418 30022G33KT P6SM SCT040 SCT090
  FM231700 30019G29KT P6SM FEW040
  FM232200 30017G25KT P6SM SKC
  FM240100 30014G21KT P6SM SKC
  FM240400 30012KT P6SM SKC
  FM241100 28009KT P6SM SKC
  FM241700 25011KT P6SM SCT200


KLAS 231120Z 2312/2418 21006KT P6SM FEW100 BKN200
  FM231900 21012G22KT P6SM FEW100 SCT200
  FM240400 22011KT P6SM FEW100


KLAX 231131Z 2312/2418 24006KT P6SM BKN015 BKN170
  FM231300 VRB03KT P6SM OVC015
  FM231800 26008KT P6SM BKN050 BKN150
  FM232100 26015KT P6SM SCT050 SCT150
  FM240400 26008KT P6SM SCT050 SCT150
  FM240900 VRB03KT P6SM SCT150


KLGA 231122Z 2312/2418 30021G31KT P6SM SCT040 SCT090
  FM231700 31019G28KT P6SM FEW040
  FM232200 31016G25KT P6SM SKC
  FM240100 31012G20KT P6SM SKC
  FM240400 30011KT P6SM SKC
  FM241100 28009KT P6SM SKC
  FM241700 25010KT P6SM SCT200


KMCO 231133Z 2312/2418 01003KT P6SM FEW010
  FM231300 02006KT P6SM FEW300
  FM231700 07008KT P6SM FEW300
  FM240200 05004KT P6SM SCT300
  FM241400 10008KT P6SM FEW030 BKN250


KMDW 231120Z 2312/2418 21003KT P6SM SKC
  FM231700 19008KT P6SM SCT250
  FM240000 18005KT P6SM SCT100 BKN200
  FM241000 18005KT P6SM -RA SCT030 OVC050
  FM241300 17005KT P6SM -RA SCT014 OVC020


KMEM 231125Z 2312/2418 10004KT P6SM SCT250
  FM231400 14008KT P6SM FEW150 BKN250
  FM240000 14005KT P6SM BKN150
  FM240900 16005KT P6SM VCSH OVC080
  TEMPO 2413/2417 5SM -RA OVC030


KMIA 231133Z 2312/2418 34005KT P6SM SKC
  FM231700 09008KT P6SM SKC
  FM240600 09007KT P6SM SCT035 SCT250
  FM241400 09014KT P6SM BKN035


KMSP 231120Z 2312/2418 18004KT P6SM SKC
  FM240600 00000KT P6SM BKN100
  FM241000 00000KT P6SM BKN060
  FM241400 05004KT P6SM BKN030


KORD 231120Z 2312/2418 VRB03KT P6SM SKC
  FM231700 19008KT P6SM SCT250
  FM240000 18005KT P6SM SCT100 BKN200
  FM241000 19006KT P6SM -RA SCT035 OVC060
  FM241400 17005KT P6SM -RA SCT014 OVC020


KPDX 231126Z 2312/2412 13004KT P6SM VCSH SCT007 SCT015 SCT040
  TEMPO 2312/2316 OVC007
  FM231600 11004KT P6SM OVC050
  FM232200 24004KT P6SM VCSH OVC050
  FM240400 26003KT P6SM BKN050


KPHL 231132Z 2312/2418 29014G26KT P6SM SCT045
  FM231300 29020G36KT P6SM SCT045
  FM231600 29018G28KT P6SM SKC
  FM232200 29012G20KT P6SM SKC
  FM240200 28008KT P6SM SKC
  FM241300 25010KT P6SM SKC


KPHX 231137Z 2312/2418 10004KT P6SM SCT250
  FM232000 27007KT P6SM FEW250
  FM240700 09004KT P6SM SCT250


KPIT 231133Z 2312/2418 30009KT P6SM FEW025
  FM231600 30010G17KT P6SM SKC
  FM240000 27004KT P6SM SKC


KSAN 231134Z 2312/2418 VRB04KT P6SM SCT020 BKN250
  TEMPO 2312/2316 BKN020
  FM231900 29010KT P6SM SCT025 SCT250
  FM240200 VRB04KT P6SM SCT025 SCT250
  FM240600 VRB04KT P6SM BKN020
  FM241700 VRB04KT P6SM SCT020


KSEA 231133Z 2312/2418 17005KT P6SM SCT030 BKN200
  TEMPO 2312/2315 BKN015
  FM231800 24005KT P6SM BKN020 BKN120
  FM232100 26007KT P6SM SCT030 BKN100
  FM240400 33005KT P6SM SCT060 BKN080
  FM241300 VRB04KT P6SM BKN015 OVC030


KSFO 231230Z 2313/2418 26006KT 6SM BR VCSH SCT015 SCT025 BKN035
  FM231430 27008KT P6SM FEW025 SCT035 SCT050
  FM231900 29014KT P6SM SCT035 SCT060 SCT100
  FM240400 29010KT P6SM FEW050 FEW200
  FM240900 25005KT P6SM FEW050 SCT200
  FM241500 08004KT P6SM FEW030 SCT200


KSLC 231120Z 2312/2418 16004KT P6SM VCSH SCT025 BKN050
  FM231500 16007KT P6SM SCT050 BKN120
  FM232000 30007KT P6SM SCT060 BKN120
  FM240200 16007KT P6SM VCSH SCT020 BKN040


KSTL 231127Z 2312/2418 11005KT P6SM BKN200
  FM231700 14008KT P6SM BKN250
  FM240500 14007KT P6SM VCSH OVC045
  FM241500 18008KT P6SM VCSH BKN045


KTPA 231134Z 2312/2418 04004KT P6SM SKC
  FM231600 07007KT P6SM SKC
  FM232100 24006KT P6SM SKC
  FM240000 30005KT P6SM FEW250
  FM240400 VRB03KT P6SM FEW250
  FM241500 11007KT P6SM FEW250